Time;durP1;ratioP1;P1;durP2;ratioP2;P2;SDS_P1;SDS_P2;PMS_P1;PMS_P2;Temp;Humidity;BMP_temperature;BMP_pressure;BME280_temperature;BME280_humidity;BME280_pressure;Samples;Min_cycle;Max_cycle;Signal;HPM_P1;HPM_P2
2022/11/29 00:01:27;;;;;;;49.70;21.83;;;5.70;99.90;;;;;;5032113;28;20021;-67
2022/11/29 00:03:54;;;;;;;51.03;23.20;;;5.70;99.90;;;;;;5042585;28;20492;-67
2022/11/29 00:06:22;;;;;;;39.63;18.35;;;5.70;99.90;;;;;;5034628;28;20234;-66
2022/11/29 00:08:48;;;;;;;42.22;18.70;;;5.70;99.90;;;;;;5046752;28;20063;-67
2022/11/29 00:14:08;;;;;;;47.85;21.05;;;5.70;99.90;;;;;;5033762;28;20053;-67
2022/11/29 00:16:34;;;;;;;55.58;22.60;;;5.70;99.90;;;;;;5028600;28;20462;-67
2022/11/29 00:19:00;;;;;;;64.05;24.58;;;5.60;99.90;;;;;;5034954;28;20099;-68
2022/11/29 00:21:26;;;;;;;51.55;23.17;;;5.50;99.90;;;;;;5048579;28;20048;-66
2022/11/29 00:23:52;;;;;;;48.92;22.20;;;5.50;99.90;;;;;;5033071;28;20534;-66
2022/11/29 00:26:18;;;;;;;48.60;21.23;;;5.50;99.90;;;;;;5031394;28;20044;-67
2022/11/29 00:28:43;;;;;;;56.13;23.67;;;5.50;99.90;;;;;;5048365;28;20381;-67
2022/11/29 00:31:17;;;;;;;50.55;23.63;;;5.50;99.90;;;;;;5038919;28;20394;-67
2022/11/29 00:33:43;;;;;;;53.53;23.38;;;5.50;99.90;;;;;;5039831;28;20517;-67
2022/11/29 00:36:09;;;;;;;56.00;22.75;;;5.50;99.90;;;;;;5027066;28;20026;-67
2022/11/29 00:38:35;;;;;;;49.15;22.70;;;5.50;99.90;;;;;;5029848;28;20112;-67
2022/11/29 00:41:01;;;;;;;51.05;22.40;;;5.50;99.90;;;;;;5029231;28;20033;-67
2022/11/29 00:43:27;;;;;;;53.17;22.85;;;5.60;99.90;;;;;;5028590;28;20052;-67
2022/11/29 00:45:52;;;;;;;54.65;22.92;;;5.60;99.90;;;;;;5027998;28;20029;-67
2022/11/29 00:48:18;;;;;;;50.53;23.95;;;5.60;99.90;;;;;;5025460;28;20136;-67
2022/11/29 00:50:44;;;;;;;51.53;22.40;;;5.60;99.90;;;;;;5046541;28;20501;-67
2022/11/29 00:53:09;;;;;;;47.40;21.70;;;5.60;99.90;;;;;;5037441;28;20037;-67
2022/11/29 00:55:35;;;;;;;55.97;22.83;;;5.60;99.90;;;;;;5028812;28;20032;-67
2022/11/29 00:58:01;;;;;;;58.15;23.05;;;5.60;99.90;;;;;;5027346;28;20037;-66
2022/11/29 01:00:26;;;;;;;52.65;22.80;;;5.60;99.90;;;;;;5042673;28;20033;-66
2022/11/29 01:02:52;;;;;;;54.58;23.98;;;5.60;99.90;;;;;;5047381;28;20128;-67
2022/11/29 01:05:18;;;;;;;56.05;24.85;;;5.60;99.90;;;;;;5028158;28;20025;-66
2022/11/29 01:07:43;;;;;;;53.15;22.98;;;5.50;99.90;;;;;;5029118;28;20032;-67
2022/11/29 01:10:09;;;;;;;52.67;22.63;;;5.50;99.90;;;;;;5026198;28;20060;-68
2022/11/29 01:12:36;;;;;;;52.90;22.20;;;5.60;99.90;;;;;;5028158;28;20537;-67
2022/11/29 01:15:04;;;;;;;51.90;23.65;;;5.60;99.90;;;;;;5039093;28;20044;-68
2022/11/29 01:17:29;;;;;;;53.28;23.17;;;5.60;99.90;;;;;;5047786;28;20036;-67
2022/11/29 01:19:55;;;;;;;52.55;22.70;;;5.60;99.90;;;;;;5040306;28;20642;-66
2022/11/29 01:22:20;;;;;;;48.72;21.98;;;5.60;99.90;;;;;;5041195;28;20031;-66
2022/11/29 01:24:46;;;;;;;51.63;21.98;;;5.60;99.90;;;;;;5032877;28;20116;-67
2022/11/29 01:27:12;;;;;;;53.83;21.90;;;5.60;99.90;;;;;;5034402;28;20108;-66
2022/11/29 01:29:38;;;;;;;52.30;23.30;;;5.60;99.90;;;;;;5028351;28;20033;-66
2022/11/29 01:32:03;;;;;;;311.27;26.50;;;5.60;99.90;;;;;;5032525;28;20021;-65
2022/11/29 01:34:29;;;;;;;528.53;28.27;;;5.60;99.90;;;;;;5034877;28;20033;-66
2022/11/29 01:36:55;;;;;;;548.85;30.35;;;5.50;99.90;;;;;;5027604;28;20041;-67
2022/11/29 01:39:21;;;;;;;116.57;20.67;;;5.50;99.90;;;;;;5042723;28;20508;-67
2022/11/29 01:41:46;;;;;;;58.45;21.77;;;5.50;99.90;;;;;;5038351;28;20743;-67
2022/11/29 01:44:12;;;;;;;47.58;19.95;;;5.50;99.90;;;;;;5032675;28;20046;-67
2022/11/29 01:46:39;;;;;;;45.70;20.45;;;5.60;99.90;;;;;;5031916;28;20029;-68
2022/11/29 01:49:16;;;;;;;48.30;21.08;;;5.60;99.90;;;;;;5042819;28;20036;-67
2022/11/29 01:51:49;;;;;;;43.47;19.92;;;5.60;99.90;;;;;;5038917;28;20056;-67
2022/11/29 01:54:16;;;;;;;48.53;21.15;;;5.60;99.90;;;;;;5037880;28;20045;-66
2022/11/29 01:56:45;;;;;;;369.60;26.00;;;5.60;99.90;;;;;;5036722;28;20041;-67
2022/11/29 01:59:14;;;;;;;275.58;24.02;;;5.60;99.90;;;;;;5039944;28;20025;-66
2022/11/29 02:01:40;;;;;;;138.10;21.88;;;5.60;99.90;;;;;;5035211;28;20091;-67
2022/11/29 02:04:07;;;;;;;90.40;21.13;;;5.60;99.90;;;;;;5031013;28;20089;-66
2022/11/29 02:06:34;;;;;;;226.95;22.83;;;5.60;99.90;;;;;;5037709;28;20028;-66
2022/11/29 02:09:00;;;;;;;48.10;19.73;;;5.60;99.90;;;;;;5034696;28;20034;-66
2022/11/29 02:11:53;;;;;;;48.25;20.13;;;5.60;99.90;;;;;;5027855;28;20103;-67
2022/11/29 02:14:52;;;;;;;43.20;18.27;;;5.60;99.90;;;;;;5030442;28;20045;-67
2022/11/29 02:17:23;;;;;;;44.03;19.45;;;5.60;99.90;;;;;;5028051;28;20513;-67
2022/11/29 02:20:09;;;;;;;45.88;19.77;;;5.60;99.90;;;;;;5031300;28;20068;-66
2022/11/29 02:22:55;;;;;;;42.90;19.27;;;5.70;99.90;;;;;;5029926;28;20084;-67
2022/11/29 02:25:40;;;;;;;48.63;20.15;;;5.70;99.90;;;;;;5012906;28;20087;-66
2022/11/29 02:29:02;;;;;;;49.55;20.55;;;5.70;99.90;;;;;;5050684;28;20052;-66
2022/11/29 02:32:10;;;;;;;41.28;18.80;;;5.70;99.90;;;;;;5012584;28;20041;-66
2022/11/29 02:35:09;;;;;;;43.22;19.00;;;5.70;99.90;;;;;;4999374;28;20038;-66
2022/11/29 02:37:43;;;;;;;43.80;20.08;;;5.80;99.90;;;;;;5026291;28;20410;-66
2022/11/29 02:40:24;;;;;;;51.50;20.52;;;5.80;99.90;;;;;;5029342;28;20036;-67
2022/11/29 02:43:08;;;;;;;;;;;5.80;99.90;;;;;;5030490;28;20060;-65
2022/11/29 02:45:36;;;;;;;47.80;19.40;;;5.80;99.90;;;;;;5023931;28;19913;-66
2022/11/29 02:48:20;;;;;;;45.05;19.85;;;5.80;99.90;;;;;;5051252;28;20028;-67
2022/11/29 02:51:13;;;;;;;42.97;18.95;;;5.90;99.90;;;;;;5042692;28;20135;-67
2022/11/29 02:54:01;;;;;;;42.53;19.63;;;5.90;99.90;;;;;;5046331;28;20048;-66
2022/11/29 02:57:00;;;;;;;51.33;21.42;;;5.90;99.90;;;;;;5043949;28;20029;-67
2022/11/29 02:59:38;;;;;;;48.75;19.20;;;5.90;99.90;;;;;;4996081;28;20418;-67
2022/11/29 03:02:18;;;;;;;44.20;19.30;;;5.90;99.90;;;;;;5039123;28;20033;-66
2022/11/29 03:05:12;;;;;;;45.35;19.25;;;5.90;99.90;;;;;;5031761;28;20115;-67
2022/11/29 03:07:43;;;;;;;47.15;19.73;;;5.90;99.90;;;;;;5049025;28;20083;-66
2022/11/29 03:10:42;;;;;;;44.45;19.55;;;5.90;99.90;;;;;;5046125;28;20120;-66
2022/11/29 03:14:00;;;;;;;46.92;20.05;;;5.90;99.90;;;;;;5030272;28;20482;-66
2022/11/29 03:16:42;;;;;;;45.72;19.25;;;5.90;99.90;;;;;;4996888;28;20045;-67
2022/11/29 03:19:29;;;;;;;46.28;19.23;;;5.90;99.90;;;;;;5030253;28;20708;-67
2022/11/29 03:22:13;;;;;;;42.58;17.85;;;5.90;99.90;;;;;;5019828;28;20060;-67
2022/11/29 03:24:54;;;;;;;46.40;18.65;;;6.00;99.90;;;;;;5030554;28;20044;-67
2022/11/29 03:27:43;;;;;;;43.17;18.52;;;6.00;99.90;;;;;;5043844;28;20064;-66
2022/11/29 03:30:12;;;;;;;45.70;19.00;;;6.00;99.90;;;;;;5028946;28;20041;-66
2022/11/29 03:33:08;;;;;;;41.53;17.98;;;6.00;99.90;;;;;;5043734;28;20056;-68
2022/11/29 03:35:55;;;;;;;39.17;16.95;;;6.00;99.90;;;;;;5017337;28;20087;-66
2022/11/29 03:38:44;;;;;;;42.42;17.67;;;6.00;99.90;;;;;;5048419;28;20035;-67
2022/11/29 03:41:44;;;;;;;38.05;17.42;;;6.10;99.90;;;;;;5043167;28;20027;-67
2022/11/29 03:44:16;;;;;;;42.67;18.90;;;6.10;99.90;;;;;;5017491;28;20060;-66
2022/11/29 03:46:51;;;;;;;41.05;18.27;;;6.10;99.90;;;;;;5038123;28;20792;-66
2022/11/29 03:49:22;;;;;;;41.75;17.58;;;6.10;99.90;;;;;;5015531;28;20124;-67
2022/11/29 03:52:25;;;;;;;41.50;19.40;;;6.10;99.90;;;;;;5030034;28;20056;-66
2022/11/29 03:55:26;;;;;;;42.08;17.75;;;6.10;99.90;;;;;;5028205;28;20075;-66
2022/11/29 03:58:04;;;;;;;;;;;6.10;99.90;;;;;;5050040;28;20039;-66
2022/11/29 04:00:43;;;;;;;38.20;17.45;;;6.10;99.90;;;;;;5042455;28;19918;-66
2022/11/29 04:03:31;;;;;;;27.15;12.40;;;6.10;99.90;;;;;;5036928;28;20033;-65
2022/11/29 04:06:13;;;;;;;42.88;18.67;;;6.10;99.90;;;;;;5043333;28;20055;-67
2022/11/29 04:08:52;;;;;;;42.83;18.60;;;6.10;99.90;;;;;;5041217;28;20163;-66
2022/11/29 04:11:32;;;;;;;40.40;18.30;;;6.10;99.90;;;;;;5035095;28;20044;-65
2022/11/29 04:14:21;;;;;;;39.53;17.33;;;6.10;99.90;;;;;;5045076;28;20405;-67
2022/11/29 04:16:56;;;;;;;37.95;17.17;;;6.10;99.90;;;;;;5026679;28;20096;-66
2022/11/29 04:19:43;;;;;;;39.95;17.30;;;6.10;99.90;;;;;;5027214;28;20498;-64
2022/11/29 04:22:33;;;;;;;42.78;19.13;;;6.10;99.90;;;;;;5029119;28;20025;-66
2022/11/29 04:25:14;;;;;;;39.30;17.30;;;6.10;99.90;;;;;;5029018;28;20048;-66
2022/11/29 04:28:03;;;;;;;41.10;17.55;;;6.10;99.90;;;;;;5033841;28;20479;-66
2022/11/29 04:31:00;;;;;;;39.70;17.05;;;6.10;99.90;;;;;;5027877;28;20467;-64
2022/11/29 04:34:18;;;;;;;39.05;18.50;;;6.20;99.90;;;;;;5034143;28;20064;-66
2022/11/29 04:36:53;;;;;;;41.22;18.67;;;6.20;99.90;;;;;;5029393;28;20029;-66
2022/11/29 04:39:40;;;;;;;38.75;17.60;;;6.20;99.90;;;;;;5033670;28;20503;-67
2022/11/29 04:42:24;;;;;;;44.28;18.88;;;6.20;99.90;;;;;;5045044;28;20383;-66
2022/11/29 04:45:29;;;;;;;41.03;17.63;;;6.20;99.90;;;;;;5032821;28;20056;-65
2022/11/29 04:48:38;;;;;;;39.42;16.92;;;6.20;99.90;;;;;;5014624;28;20041;-66
2022/11/29 04:51:21;;;;;;;43.03;17.65;;;6.20;99.90;;;;;;4991060;28;20074;-66
2022/11/29 04:54:18;;;;;;;39.22;17.40;;;6.20;99.90;;;;;;4986053;28;20030;-66
2022/11/29 04:56:47;;;;;;;38.42;17.35;;;6.20;99.90;;;;;;4961955;28;20080;-67
2022/11/29 04:59:39;;;;;;;44.55;16.88;;;6.20;99.90;;;;;;4986799;28;20037;-68
2022/11/29 05:02:30;;;;;;;36.72;16.52;;;6.20;99.90;;;;;;4974377;28;20049;-68
2022/11/29 05:05:20;;;;;;;39.15;16.88;;;6.20;99.90;;;;;;4987318;28;20030;-69
2022/11/29 05:08:00;;;;;;;38.38;17.10;;;6.20;99.90;;;;;;4967546;28;20049;-67
2022/11/29 05:11:10;;;;;;;38.67;16.27;;;6.20;99.90;;;;;;4984583;28;20092;-68
2022/11/29 05:13:44;;;;;;;44.37;17.60;;;6.30;99.90;;;;;;4968662;28;20439;-67
2022/11/29 05:16:18;;;;;;;63.83;18.58;;;6.20;99.90;;;;;;4988190;28;20458;-68
2022/11/29 05:19:35;;;;;;;49.08;16.58;;;6.20;99.90;;;;;;4993977;28;20038;-67
2022/11/29 05:22:04;;;;;;;58.58;17.65;;;6.20;99.90;;;;;;5005654;28;20179;-69
2022/11/29 05:25:00;;;;;;;43.08;17.42;;;6.30;99.90;;;;;;5035481;28;20163;-68
2022/11/29 05:27:45;;;;;;;57.83;19.00;;;6.20;99.90;;;;;;5045017;28;20079;-68
2022/11/29 05:30:15;;;;;;;49.08;18.10;;;6.20;99.90;;;;;;5048480;28;20062;-68
2022/11/29 05:32:53;;;;;;;110.35;21.23;;;6.20;99.90;;;;;;5037019;28;20105;-67
2022/11/29 05:35:28;;;;;;;72.63;19.23;;;6.20;99.90;;;;;;5035616;28;20029;-68
2022/11/29 05:38:14;;;;;;;133.75;20.20;;;6.20;99.90;;;;;;5034124;28;20108;-67
2022/11/29 05:40:59;;;;;;;104.88;19.80;;;6.10;99.90;;;;;;5034352;28;20512;-68
2022/11/29 05:43:46;;;;;;;87.03;19.65;;;6.20;99.90;;;;;;5031162;28;20433;-67
2022/11/29 05:46:16;;;;;;;239.50;23.88;;;6.20;99.90;;;;;;5039442;28;20026;-68
2022/11/29 05:49:06;;;;;;;124.97;19.25;;;6.20;99.90;;;;;;5036113;28;20088;-66
2022/11/29 05:51:49;;;;;;;147.57;20.20;;;6.20;99.90;;;;;;5042192;28;20056;-68
2022/11/29 05:54:34;;;;;;;53.88;17.13;;;6.20;99.90;;;;;;5038763;28;20411;-68
2022/11/29 05:57:37;;;;;;;92.95;18.48;;;6.30;99.90;;;;;;5030322;28;20033;-69
2022/11/29 06:00:05;;;;;;;50.88;17.88;;;6.30;99.90;;;;;;5042985;28;20076;-66
2022/11/29 06:02:40;;;;;;;78.00;18.23;;;6.30;99.90;;;;;;5035491;28;20125;-67
2022/11/29 06:05:45;;;;;;;58.83;17.48;;;6.30;99.90;;;;;;5037780;28;20490;-67
2022/11/29 06:08:38;;;;;;;47.83;16.08;;;6.30;99.90;;;;;;5032006;28;20056;-68
2022/11/29 06:11:23;;;;;;;242.95;23.98;;;6.30;99.90;;;;;;5043338;28;20074;-68
2022/11/29 06:14:24;;;;;;;163.07;20.88;;;6.30;99.90;;;;;;5049703;28;20190;-67
2022/11/29 06:17:07;;;;;;;135.98;20.08;;;6.30;99.90;;;;;;5021672;28;20037;-68
2022/11/29 06:20:03;;;;;;;42.72;18.35;;;6.30;99.90;;;;;;5050992;28;20044;-68
2022/11/29 06:22:49;;;;;;;51.38;19.60;;;6.30;99.90;;;;;;5041104;28;20070;-69
2022/11/29 06:25:36;;;;;;;51.65;20.35;;;6.30;99.90;;;;;;5041640;28;20136;-67
2022/11/29 06:28:23;;;;;;;82.95;23.58;;;6.30;99.90;;;;;;5011704;28;20041;-68
2022/11/29 06:31:31;;;;;;;81.78;23.50;;;6.30;99.90;;;;;;5039162;28;20086;-67
2022/11/29 06:34:04;;;;;;;66.18;20.63;;;6.30;99.90;;;;;;5013581;28;20068;-67
2022/11/29 06:36:46;;;;;;;130.45;25.48;;;6.40;99.90;;;;;;5029224;28;20041;-66
2022/11/29 06:39:12;;;;;;;87.43;22.70;;;6.40;99.90;;;;;;5028909;28;20079;-66
2022/11/29 06:41:37;;;;;;;52.05;21.25;;;6.40;99.90;;;;;;5030664;28;20037;-67
2022/11/29 06:44:04;;;;;;;106.78;24.23;;;6.40;99.90;;;;;;5030923;28;20041;-68
2022/11/29 06:46:37;;;;;;;160.57;24.67;;;6.40;99.90;;;;;;5025618;28;20052;-70
2022/11/29 06:49:18;;;;;;;126.95;22.83;;;6.30;99.90;;;;;;5030537;28;20029;-67
2022/11/29 06:51:56;;;;;;;77.40;24.27;;;6.40;99.90;;;;;;5039844;28;20166;-67
2022/11/29 06:54:37;;;;;;;82.18;23.45;;;6.40;99.90;;;;;;5029883;28;20052;-69
2022/11/29 06:57:13;;;;;;;;;;;6.40;99.90;;;;;;5035838;28;20119;-66
2022/11/29 06:59:48;;;;;;;74.28;20.83;;;6.40;99.90;;;;;;5039084;28;19967;-68
2022/11/29 07:02:34;;;;;;;50.08;18.77;;;6.40;99.90;;;;;;5034867;28;20029;-68
2022/11/29 07:05:26;;;;;;;45.45;19.77;;;6.40;99.90;;;;;;5038429;28;20087;-69
2022/11/29 07:07:56;;;;;;;44.53;19.30;;;6.40;99.90;;;;;;5034465;28;20032;-68
2022/11/29 07:10:22;;;;;;;56.83;19.55;;;6.40;99.90;;;;;;5036779;28;20029;-68
2022/11/29 07:12:50;;;;;;;89.60;21.38;;;6.50;99.90;;;;;;5049285;28;20068;-68
2022/11/29 07:15:18;;;;;;;81.75;20.52;;;6.50;99.90;;;;;;5047037;28;20576;-70
2022/11/29 07:18:06;;;;;;;135.07;23.75;;;6.50;99.90;;;;;;5027869;28;20136;-69
2022/11/29 07:20:49;;;;;;;79.97;21.52;;;6.50;99.90;;;;;;5033238;28;20033;-68
2022/11/29 07:23:32;;;;;;;169.60;22.52;;;6.50;99.90;;;;;;5033663;28;20563;-68
2022/11/29 07:26:29;;;;;;;88.85;20.17;;;6.50;99.90;;;;;;5029789;28;20076;-68
2022/11/29 07:29:21;;;;;;;99.95;22.73;;;6.50;99.90;;;;;;5018768;28;20390;-69
2022/11/29 07:32:06;;;;;;;111.75;21.27;;;6.40;99.90;;;;;;5031769;28;20021;-70
2022/11/29 07:34:48;;;;;;;141.43;22.65;;;6.40;99.90;;;;;;5033442;28;20026;-69
2022/11/29 07:37:23;;;;;;;96.10;22.45;;;6.50;99.90;;;;;;5026782;28;20471;-69
2022/11/29 07:39:59;;;;;;;93.88;22.15;;;6.50;99.90;;;;;;5028423;28;20021;-68
2022/11/29 07:42:30;;;;;;;126.60;20.50;;;6.40;99.90;;;;;;5033934;28;20111;-70
2022/11/29 07:45:05;;;;;;;128.95;20.88;;;6.40;99.90;;;;;;5028273;28;20041;-67
2022/11/29 07:47:30;;;;;;;192.52;22.83;;;6.50;99.90;;;;;;5025508;28;20482;-69
2022/11/29 07:49:56;;;;;;;295.02;24.30;;;6.40;99.90;;;;;;5031780;28;20028;-68
2022/11/29 07:52:22;;;;;;;151.45;20.55;;;6.50;99.90;;;;;;5031361;28;20033;-67
2022/11/29 07:54:47;;;;;;;202.80;21.98;;;6.50;99.90;;;;;;5034926;28;20665;-67
2022/11/29 07:57:13;;;;;;;133.55;20.40;;;6.50;99.90;;;;;;5024474;28;20474;-68
2022/11/29 07:59:38;;;;;;;135.32;19.10;;;6.50;99.90;;;;;;5024995;28;20029;-67
2022/11/29 08:02:04;;;;;;;139.88;20.55;;;6.50;99.90;;;;;;5028927;28;20068;-67
2022/11/29 08:04:30;;;;;;;121.35;20.52;;;6.60;99.90;;;;;;5029212;28;20037;-66
2022/11/29 08:06:59;;;;;;;164.75;20.92;;;6.60;99.90;;;;;;5029211;28;20033;-66
2022/11/29 08:09:25;;;;;;;279.98;23.20;;;6.60;99.90;;;;;;5027683;28;20430;-68
2022/11/29 08:11:51;;;;;;;68.45;17.92;;;6.60;99.90;;;;;;5028650;28;20153;-68
2022/11/29 08:14:17;;;;;;;178.45;18.95;;;6.60;99.90;;;;;;5029842;28;20140;-68
2022/11/29 08:16:42;;;;;;;144.20;18.88;;;6.60;99.90;;;;;;5025777;28;20124;-66
2022/11/29 08:19:08;;;;;;;222.02;19.45;;;6.70;99.90;;;;;;5033409;28;20033;-65
2022/11/29 08:21:33;;;;;;;208.93;20.27;;;6.60;99.90;;;;;;5044097;28;20037;-66
2022/11/29 08:23:59;;;;;;;346.05;22.70;;;6.70;99.90;;;;;;5043843;28;20040;-66
2022/11/29 08:26:25;;;;;;;199.80;18.77;;;6.70;99.90;;;;;;5041988;28;20033;-68
2022/11/29 08:28:51;;;;;;;196.40;20.83;;;6.70;99.90;;;;;;5042113;28;20021;-67
2022/11/29 08:31:18;;;;;;;162.90;18.95;;;6.80;99.90;;;;;;5048522;28;20064;-67
2022/11/29 08:33:44;;;;;;;202.90;20.00;;;6.70;99.90;;;;;;5027175;28;20849;-66
2022/11/29 08:36:15;;;;;;;63.22;15.93;;;6.70;99.90;;;;;;5042340;28;20111;-67
2022/11/29 08:38:41;;;;;;;68.15;14.73;;;6.80;99.90;;;;;;5027387;28;20115;-65
2022/11/29 08:41:10;;;;;;;40.65;14.80;;;6.80;99.90;;;;;;5029020;28;20101;-66
2022/11/29 08:43:35;;;;;;;38.50;14.13;;;6.70;99.90;;;;;;5034564;28;20085;-66
2022/11/29 08:46:01;;;;;;;32.13;12.82;;;6.80;99.90;;;;;;5027627;28;20061;-67
2022/11/29 08:48:27;;;;;;;32.35;13.18;;;6.80;99.90;;;;;;5033015;28;20040;-68
2022/11/29 08:50:54;;;;;;;33.25;13.02;;;6.80;99.90;;;;;;5048214;28;20033;-68
2022/11/29 08:56:05;;;;;;;30.65;12.23;;;6.90;99.90;;;;;;5028307;28;20037;-68
2022/11/29 08:58:31;;;;;;;28.27;12.52;;;6.90;99.90;;;;;;5026588;28;20041;-69
2022/11/29 09:00:57;;;;;;;33.15;12.50;;;6.90;99.90;;;;;;5025564;28;20149;-68
2022/11/29 09:06:13;;;;;;;30.38;12.00;;;7.00;99.90;;;;;;5035852;28;20063;-67
2022/11/29 09:08:43;;;;;;;30.00;12.57;;;7.10;99.90;;;;;;5033739;28;20033;-67
2022/11/29 09:11:13;;;;;;;37.50;14.37;;;7.10;99.90;;;;;;5027538;28;20037;-67
2022/11/29 09:13:41;;;;;;;39.45;17.50;;;7.10;99.90;;;;;;5027067;28;20099;-67
2022/11/29 09:16:09;;;;;;;44.30;18.42;;;7.20;99.90;;;;;;5029568;28;20068;-67
2022/11/29 09:18:37;;;;;;;28.42;12.23;;;7.20;99.90;;;;;;5032152;28;20032;-69
2022/11/29 09:21:11;;;;;;;19.48;9.27;;;7.30;99.90;;;;;;5027415;28;20061;-67
2022/11/29 09:23:37;;;;;;;20.83;8.88;;;7.30;99.90;;;;;;5023820;28;20088;-66
2022/11/29 09:26:04;;;;;;;27.02;11.48;;;7.40;99.90;;;;;;5028200;28;20034;-68
2022/11/29 09:28:32;;;;;;;22.52;9.85;;;7.30;99.90;;;;;;5028178;28;20037;-69
2022/11/29 09:31:07;;;;;;;18.58;8.63;;;7.40;99.90;;;;;;5038638;28;20052;-69
2022/11/29 09:33:33;;;;;;;14.30;7.00;;;7.40;99.90;;;;;;5028653;28;20557;-69
2022/11/29 09:36:00;;;;;;;14.88;7.07;;;7.40;99.90;;;;;;5027960;28;20116;-68
2022/11/29 09:38:26;;;;;;;15.93;7.18;;;7.40;99.90;;;;;;5026944;28;20041;-67
2022/11/29 09:41:00;;;;;;;15.80;6.70;;;7.50;99.90;;;;;;5026821;28;20029;-67
2022/11/29 09:43:32;;;;;;;14.07;7.40;;;7.40;99.90;;;;;;5028456;28;20033;-67
2022/11/29 09:46:14;;;;;;;16.98;7.45;;;7.40;99.90;;;;;;5029505;28;20065;-68
2022/11/29 09:48:50;;;;;;;15.90;7.03;;;7.40;99.90;;;;;;5032332;28;20029;-69
2022/11/29 09:51:35;;;;;;;12.20;6.75;;;7.40;99.90;;;;;;5041498;28;20086;-68
2022/11/29 09:54:23;;;;;;;15.48;7.63;;;7.50;99.90;;;;;;5036315;28;20036;-69
2022/11/29 09:56:51;;;;;;;17.08;8.27;;;7.50;99.90;;;;;;5027269;28;20036;-69
2022/11/29 09:59:42;;;;;;;16.90;7.95;;;7.50;99.90;;;;;;5036174;28;20131;-69
2022/11/29 10:02:29;;;;;;;14.43;7.38;;;7.50;99.90;;;;;;5035143;28;20164;-70
2022/11/29 10:05:07;;;;;;;16.75;8.35;;;7.50;99.90;;;;;;5025101;28;20494;-69
2022/11/29 10:07:47;;;;;;;17.70;9.00;;;7.50;99.90;;;;;;5034457;28;20113;-71
2022/11/29 10:10:18;;;;;;;17.10;8.05;;;7.50;99.90;;;;;;5026956;28;20030;-69
2022/11/29 10:12:53;;;;;;;16.67;8.02;;;7.50;99.90;;;;;;5041448;28;20049;-69
2022/11/29 10:15:21;;;;;;;17.17;8.35;;;7.40;99.90;;;;;;5048240;28;20551;-68
2022/11/29 10:17:55;;;;;;;15.77;8.48;;;7.40;99.90;;;;;;5042719;28;20052;-68
2022/11/29 10:20:26;;;;;;;16.65;8.55;;;7.50;99.90;;;;;;5043398;28;20486;-69
2022/11/29 10:22:56;;;;;;;18.98;8.82;;;7.40;99.90;;;;;;5025243;28;20079;-68
2022/11/29 10:25:49;;;;;;;17.80;8.63;;;7.40;99.90;;;;;;5033781;28;20117;-69
2022/11/29 10:28:17;;;;;;;18.77;8.60;;;7.40;99.90;;;;;;5047994;28;20056;-69
2022/11/29 10:30:43;;;;;;;17.75;8.73;;;7.40;99.90;;;;;;5044144;28;20033;-69
2022/11/29 10:33:31;;;;;;;20.55;9.05;;;7.40;99.90;;;;;;5040157;28;20024;-69
2022/11/29 10:36:00;;;;;;;20.63;9.98;;;7.40;99.90;;;;;;5038959;28;20022;-67
2022/11/29 10:38:26;;;;;;;20.77;9.75;;;7.40;99.90;;;;;;5030369;28;20052;-68
2022/11/29 10:40:57;;;;;;;22.73;10.60;;;7.40;99.90;;;;;;5045444;28;20029;-68
2022/11/29 10:43:24;;;;;;;24.77;10.88;;;7.40;99.90;;;;;;5028726;28;20034;-69
2022/11/29 10:45:54;;;;;;;30.02;11.98;;;7.50;99.90;;;;;;5036962;28;20551;-68
2022/11/29 10:48:23;;;;;;;25.27;11.95;;;7.50;99.90;;;;;;5037210;28;20038;-68
2022/11/29 10:50:50;;;;;;;27.80;11.93;;;7.40;99.90;;;;;;5030384;28;20040;-69
2022/11/29 10:53:17;;;;;;;28.08;12.05;;;7.40;99.90;;;;;;5037554;28;20136;-70
2022/11/29 10:55:52;;;;;;;32.85;12.93;;;7.40;99.90;;;;;;5042312;28;20033;-69
2022/11/29 10:58:24;;;;;;;25.38;11.75;;;7.40;99.90;;;;;;5031011;28;20037;-68
2022/11/29 11:00:58;;;;;;;25.98;11.05;;;7.40;99.90;;;;;;5033721;28;20069;-70
2022/11/29 11:03:29;;;;;;;27.98;11.07;;;7.40;99.90;;;;;;5039231;28;20029;-69
2022/11/29 11:06:10;;;;;;;27.17;11.93;;;7.40;99.90;;;;;;5031647;28;20379;-67
2022/11/29 11:08:37;;;;;;;29.23;12.32;;;7.40;99.90;;;;;;5029952;28;20559;-69
2022/11/29 11:11:06;;;;;;;33.53;12.30;;;7.40;99.90;;;;;;5048846;28;20062;-70
2022/11/29 11:13:34;;;;;;;28.90;12.27;;;7.40;99.90;;;;;;5050579;28;20099;-69
2022/11/29 11:16:18;;;;;;;25.13;12.32;;;7.40;99.90;;;;;;5029119;28;20632;-68
2022/11/29 11:18:45;;;;;;;26.30;12.32;;;7.40;99.90;;;;;;5028727;28;20470;-71
2022/11/29 11:21:14;;;;;;;30.38;14.05;;;7.40;99.90;;;;;;5043255;28;20159;-69
2022/11/29 11:24:00;;;;;;;29.90;13.27;;;7.40;99.90;;;;;;5031397;28;20042;-70
2022/11/29 11:26:39;;;;;;;34.67;14.18;;;7.40;99.90;;;;;;5027969;28;20180;-67
2022/11/29 11:29:05;;;;;;;29.63;13.82;;;7.50;99.90;;;;;;5049139;28;20025;-68
2022/11/29 11:31:34;;;;;;;31.00;14.35;;;7.50;99.90;;;;;;5029252;28;20044;-69
2022/11/29 11:34:32;;;;;;;32.28;14.27;;;7.50;99.90;;;;;;5027205;28;20029;-68
2022/11/29 11:37:13;;;;;;;29.80;13.40;;;7.50;99.90;;;;;;5028741;28;20240;-67
2022/11/29 11:39:43;;;;;;;30.73;13.07;;;7.50;99.90;;;;;;5024016;28;20022;-71
2022/11/29 11:45:01;;;;;;;31.67;13.15;;;7.50;99.90;;;;;;5018021;28;20044;-66
2022/11/29 11:47:29;;;;;;;29.75;13.73;;;7.50;99.90;;;;;;5029615;28;20504;-68
2022/11/29 11:50:06;;;;;;;26.52;12.00;;;7.50;99.90;;;;;;5029120;28;20032;-65
2022/11/29 11:52:38;;;;;;;26.67;12.10;;;7.50;99.90;;;;;;5034059;28;20127;-67
2022/11/29 11:55:24;;;;;;;29.40;13.23;;;7.40;99.90;;;;;;5027997;28;20041;-68
2022/11/29 11:58:14;;;;;;;25.60;11.88;;;7.40;99.90;;;;;;5039189;28;20029;-67
2022/11/29 12:00:49;;;;;;;30.67;12.60;;;7.50;99.90;;;;;;5039721;28;20352;-67
2022/11/29 12:03:52;;;;;;;30.80;13.23;;;7.50;99.90;;;;;;5034920;28;20037;-66
2022/11/29 12:06:33;;;;;;;24.90;11.30;;;7.50;99.90;;;;;;5030508;28;20033;-68
2022/11/29 12:09:08;;;;;;;27.05;12.20;;;7.40;99.90;;;;;;5035722;28;20110;-66
2022/11/29 12:11:52;;;;;;;23.40;11.73;;;7.40;99.90;;;;;;5028274;28;20041;-65
2022/11/29 12:14:33;;;;;;;25.70;12.98;;;7.50;99.90;;;;;;5027650;28;20675;-65
2022/11/29 12:17:21;;;;;;;26.40;12.40;;;7.50;99.90;;;;;;5009208;28;20030;-66
2022/11/29 12:20:00;;;;;;;26.05;11.55;;;7.50;99.90;;;;;;5023861;28;20512;-65
2022/11/29 12:22:32;;;;;;;27.70;12.73;;;7.60;99.90;;;;;;5009508;28;20065;-67
2022/11/29 12:25:07;;;;;;;23.92;11.93;;;7.50;99.90;;;;;;5034580;28;20036;-66
2022/11/29 12:27:33;;;;;;;28.58;12.18;;;7.60;99.90;;;;;;5030730;28;20033;-67
2022/11/29 12:29:59;;;;;;;23.15;10.57;;;7.60;99.90;;;;;;5048151;28;20115;-65
2022/11/29 12:32:45;;;;;;;23.48;11.82;;;7.60;99.90;;;;;;5036415;28;20091;-65
2022/11/29 12:35:25;;;;;;;23.48;11.98;;;7.70;99.90;;;;;;5043949;28;20034;-64
2022/11/29 12:38:04;;;;;;;22.73;10.80;;;7.70;99.90;;;;;;5040730;28;20033;-64
2022/11/29 12:41:02;;;;;;;20.48;9.80;;;7.80;99.90;;;;;;5037142;28;20025;-65
2022/11/29 12:43:51;;;;;;;18.77;8.82;;;7.80;99.90;;;;;;5032996;28;20053;-64
2022/11/29 12:46:25;;;;;;;17.25;9.00;;;7.80;99.90;;;;;;5029739;28;20056;-65
2022/11/29 12:48:59;;;;;;;16.50;8.20;;;7.80;99.90;;;;;;5038628;28;20084;-67
2022/11/29 12:51:38;;;;;;;17.23;8.63;;;7.80;99.90;;;;;;5047753;28;20037;-64
2022/11/29 12:54:37;;;;;;;17.65;9.35;;;7.80;99.90;;;;;;5031754;28;20490;-66
2022/11/29 12:57:30;;;;;;;17.20;9.13;;;7.80;99.90;;;;;;5027717;28;20843;-66
2022/11/29 13:00:08;;;;;;;17.77;9.88;;;7.80;99.90;;;;;;5034793;28;20094;-65
2022/11/29 13:02:33;;;;;;;17.05;9.13;;;7.80;99.90;;;;;;5044769;28;20115;-65
2022/11/29 13:05:23;;;;;;;15.82;9.25;;;7.70;99.90;;;;;;5040372;28;20132;-66
2022/11/29 13:08:20;;;;;;;17.65;9.60;;;7.70;99.90;;;;;;5043856;28;20137;-68
2022/11/29 13:10:51;;;;;;;17.15;8.70;;;7.70;99.90;;;;;;5035735;28;20033;-67
2022/11/29 13:13:23;;;;;;;16.60;9.10;;;7.70;99.90;;;;;;5035406;28;20057;-63
2022/11/29 13:15:58;;;;;;;17.08;8.65;;;7.70;99.90;;;;;;5030111;28;20029;-67
2022/11/29 13:18:32;;;;;;;17.15;9.13;;;7.70;99.90;;;;;;5045379;28;20072;-64
2022/11/29 13:21:12;;;;;;;16.45;8.32;;;7.60;99.90;;;;;;5039734;28;20025;-64
2022/11/29 13:23:40;;;;;;;15.75;7.95;;;7.70;99.90;;;;;;5038218;28;20044;-65
2022/11/29 13:26:09;;;;;;;19.02;9.40;;;7.60;99.90;;;;;;5008647;28;20654;-64
2022/11/29 13:28:38;;;;;;;16.20;8.52;;;7.70;99.90;;;;;;5035557;28;20397;-64
2022/11/29 13:31:08;;;;;;;15.82;8.32;;;7.70;99.90;;;;;;5047666;28;20036;-65
2022/11/29 13:33:55;;;;;;;17.52;9.20;;;7.70;99.90;;;;;;5036760;28;20125;-64
2022/11/29 13:36:28;;;;;;;19.83;9.50;;;7.60;99.90;;;;;;5028468;28;20026;-66
2022/11/29 13:39:17;;;;;;;18.83;9.68;;;7.60;99.90;;;;;;5038213;28;20030;-65